Time;durP1;ratioP1;P1;durP2;ratioP2;P2;SDS_P1;SDS_P2;PMS_P1;PMS_P2;Temp;Humidity;BMP_temperature;BMP_pressure;BME280_temperature;BME280_humidity;BME280_pressure;Samples;Min_cycle;Max_cycle;Signal;HPM_P1;HPM_P2
2020/12/14 00:00:53;;;;;;;39.70;18.75;;;;;;;;;;5024130;28;20053;-83
2020/12/14 00:03:20;;;;;;;36.75;18.00;;;;;;;;;;5041020;28;20406;-83
2020/12/14 00:05:46;;;;;;;33.28;17.42;;;;;;;;;;5042149;28;20105;-83
2020/12/14 00:08:12;;;;;;;35.95;18.10;;;;;;;;;;5042259;28;20398;-83
2020/12/14 00:10:38;;;;;;;34.15;16.25;;;;;;;;;;5040725;28;20348;-83
2020/12/14 00:13:04;;;;;;;38.30;18.33;;;;;;;;;;5037231;28;20061;-83
2020/12/14 00:15:30;;;;;;;30.77;15.88;;;;;;;;;;5041537;28;20113;-83
2020/12/14 00:17:57;;;;;;;31.13;16.83;;;;;;;;;;5041658;28;20050;-83
2020/12/14 00:20:24;;;;;;;31.50;16.33;;;;;;;;;;5041335;28;20381;-83
2020/12/14 00:22:54;;;;;;;33.60;17.48;;;;;;;;;;5040866;28;20045;-83
2020/12/14 00:25:21;;;;;;;28.20;14.75;;;;;;;;;;5040790;28;20049;-83
2020/12/14 00:27:47;;;;;;;31.17;16.13;;;;;;;;;;5040668;28;20105;-83
2020/12/14 00:30:13;;;;;;;32.20;16.42;;;;;;;;;;5032162;28;20095;-83
2020/12/14 00:32:39;;;;;;;29.42;14.52;;;;;;;;;;5021862;28;20054;-83
2020/12/14 00:35:05;;;;;;;27.20;14.65;;;;;;;;;;5013651;28;20413;-82
2020/12/14 00:37:31;;;;;;;31.77;15.27;;;;;;;;;;5040619;28;20054;-83
2020/12/14 00:39:57;;;;;;;27.48;14.50;;;;;;;;;;5024659;28;20054;-82
2020/12/14 00:42:23;;;;;;;29.95;15.27;;;;;;;;;;5032408;28;20060;-83
2020/12/14 00:44:53;;;;;;;29.08;15.93;;;;;;;;;;5007238;28;20077;-83
2020/12/14 00:47:21;;;;;;;27.85;15.25;;;;;;;;;;5037028;28;20046;-83
2020/12/14 00:49:47;;;;;;;28.10;15.43;;;;;;;;;;5022036;28;20049;-83
2020/12/14 00:52:13;;;;;;;26.90;15.73;;;;;;;;;;5036313;28;20041;-82
2020/12/14 00:54:41;;;;;;;31.08;14.63;;;;;;;;;;5039529;28;20030;-83
2020/12/14 00:57:07;;;;;;;25.98;14.45;;;;;;;;;;5021514;28;20046;-83
2020/12/14 00:59:33;;;;;;;31.65;15.50;;;;;;;;;;5015692;28;20081;-83
2020/12/14 01:01:59;;;;;;;27.60;14.18;;;;;;;;;;5010546;28;20094;-83
2020/12/14 01:04:26;;;;;;;27.55;13.70;;;;;;;;;;5033361;28;20038;-80
2020/12/14 01:06:52;;;;;;;26.75;14.45;;;;;;;;;;5053771;28;20041;-83
2020/12/14 01:09:19;;;;;;;25.70;14.48;;;;;;;;;;5032767;28;20451;-83
2020/12/14 01:11:45;;;;;;;26.52;14.15;;;;;;;;;;5008840;28;20100;-83
2020/12/14 01:14:14;;;;;;;22.80;13.15;;;;;;;;;;5029631;28;20049;-83
2020/12/14 01:16:40;;;;;;;26.42;14.20;;;;;;;;;;5016515;28;20466;-83
2020/12/14 01:19:06;;;;;;;17.90;11.40;;;;;;;;;;5021929;28;20046;-83
2020/12/14 01:21:33;;;;;;;22.65;11.82;;;;;;;;;;5034341;28;20149;-84
2020/12/14 01:23:59;;;;;;;25.35;13.00;;;;;;;;;;5010857;28;20065;-83
2020/12/14 01:26:26;;;;;;;25.25;13.40;;;;;;;;;;5017658;28;20148;-83
2020/12/14 01:28:52;;;;;;;21.30;11.43;;;;;;;;;;5014117;28;20092;-83
2020/12/14 01:31:19;;;;;;;21.55;12.18;;;;;;;;;;5025933;28;20046;-83
2020/12/14 01:33:45;;;;;;;20.42;11.63;;;;;;;;;;5028011;28;20061;-83
2020/12/14 01:36:11;;;;;;;22.73;11.48;;;;;;;;;;5008103;28;20101;-83
2020/12/14 01:38:37;;;;;;;19.67;10.98;;;;;;;;;;5004158;28;20046;-83
2020/12/14 01:41:03;;;;;;;19.90;10.50;;;;;;;;;;5032952;28;20656;-83
2020/12/14 01:43:30;;;;;;;23.85;11.43;;;;;;;;;;5010438;28;20052;-83
2020/12/14 01:45:56;;;;;;;22.75;11.68;;;;;;;;;;5009044;28;20050;-84
2020/12/14 01:48:24;;;;;;;19.38;10.15;;;;;;;;;;5035787;28;20052;-84
2020/12/14 01:50:50;;;;;;;18.55;10.82;;;;;;;;;;5020273;28;20062;-83
2020/12/14 01:53:17;;;;;;;21.58;11.45;;;;;;;;;;5028643;28;20060;-83
2020/12/14 01:55:43;;;;;;;16.08;9.75;;;;;;;;;;5022043;28;20108;-83
2020/12/14 01:58:09;;;;;;;17.58;10.27;;;;;;;;;;5020715;28;20133;-83
2020/12/14 02:00:36;;;;;;;14.50;9.52;;;;;;;;;;5019330;28;20386;-83
2020/12/14 02:03:03;;;;;;;19.23;10.00;;;;;;;;;;5040281;28;20049;-83
2020/12/14 02:05:29;;;;;;;15.30;9.90;;;;;;;;;;5022788;28;20050;-83
2020/12/14 02:07:59;;;;;;;16.55;10.18;;;;;;;;;;5022814;28;20049;-83
2020/12/14 02:10:25;;;;;;;15.85;9.63;;;;;;;;;;5039988;28;20417;-83
2020/12/14 02:12:51;;;;;;;15.95;10.00;;;;;;;;;;5039665;28;20053;-83
2020/12/14 02:15:17;;;;;;;21.08;9.13;;;;;;;;;;5040532;28;20424;-83
2020/12/14 02:17:43;;;;;;;15.80;8.15;;;;;;;;;;5039977;28;20054;-83
2020/12/14 02:20:10;;;;;;;13.68;9.02;;;;;;;;;;5039664;28;20053;-83
2020/12/14 02:22:36;;;;;;;19.17;8.85;;;;;;;;;;5021549;28;20049;-83
2020/12/14 02:25:06;;;;;;;18.30;8.45;;;;;;;;;;5021617;28;20046;-83
2020/12/14 02:27:33;;;;;;;16.42;8.75;;;;;;;;;;5036905;28;20042;-83
2020/12/14 02:29:59;;;;;;;16.50;9.10;;;;;;;;;;5038431;28;20080;-83
2020/12/14 02:32:27;;;;;;;12.52;7.97;;;;;;;;;;5039242;28;20060;-83
2020/12/14 02:34:54;;;;;;;13.13;7.70;;;;;;;;;;5043266;28;20045;-83
2020/12/14 02:37:21;;;;;;;16.75;8.90;;;;;;;;;;5042889;28;20089;-83
2020/12/14 02:39:48;;;;;;;13.65;8.25;;;;;;;;;;5043530;28;20049;-83
2020/12/14 02:42:15;;;;;;;15.57;8.15;;;;;;;;;;5042974;28;20156;-83
2020/12/14 02:44:42;;;;;;;13.40;7.70;;;;;;;;;;5043330;28;20079;-83
2020/12/14 02:47:08;;;;;;;14.63;8.02;;;;;;;;;;5042218;28;20067;-83
2020/12/14 02:49:35;;;;;;;13.20;8.00;;;;;;;;;;5042281;28;20057;-83
2020/12/14 02:52:03;;;;;;;13.18;8.02;;;;;;;;;;5041192;28;20049;-83
2020/12/14 02:54:29;;;;;;;15.38;8.73;;;;;;;;;;5041093;28;20053;-83
2020/12/14 02:56:55;;;;;;;13.95;8.57;;;;;;;;;;5042353;28;20105;-83
2020/12/14 02:59:23;;;;;;;17.48;8.77;;;;;;;;;;5040681;28;20060;-83
2020/12/14 03:01:50;;;;;;;14.45;8.43;;;;;;;;;;5040772;28;20069;-83
2020/12/14 03:04:19;;;;;;;15.32;8.50;;;;;;;;;;5041603;28;20049;-83
2020/12/14 03:06:47;;;;;;;20.05;8.63;;;;;;;;;;5039531;28;20045;-83
2020/12/14 03:09:13;;;;;;;14.82;8.77;;;;;;;;;;5041451;28;20076;-83
2020/12/14 03:11:42;;;;;;;13.70;8.35;;;;;;;;;;5042066;28;20045;-83
2020/12/14 03:14:08;;;;;;;14.98;8.05;;;;;;;;;;5042186;28;20583;-83
2020/12/14 03:17:04;;;;;;;14.85;8.55;;;;;;;;;;5042048;28;20132;-83
2020/12/14 03:19:30;;;;;;;16.33;7.85;;;;;;;;;;5029832;28;20515;-83
2020/12/14 03:21:56;;;;;;;12.20;8.02;;;;;;;;;;5036433;28;20375;-83
2020/12/14 03:24:22;;;;;;;12.60;7.80;;;;;;;;;;5037220;28;20141;-83
2020/12/14 03:26:51;;;;;;;16.42;8.30;;;;;;;;;;5021844;28;20080;-83
2020/12/14 03:29:18;;;;;;;14.48;7.85;;;;;;;;;;5004968;28;20050;-82
2020/12/14 03:31:44;;;;;;;11.50;7.18;;;;;;;;;;5022195;28;20065;-82
2020/12/14 03:34:10;;;;;;;12.60;7.25;;;;;;;;;;5036890;28;20100;-82
2020/12/14 03:36:36;;;;;;;14.15;7.80;;;;;;;;;;5021924;28;20050;-82
2020/12/14 03:39:03;;;;;;;13.98;8.23;;;;;;;;;;5022170;28;20060;-82
2020/12/14 03:41:29;;;;;;;14.27;7.53;;;;;;;;;;5005162;28;20054;-82
2020/12/14 03:43:55;;;;;;;14.50;8.32;;;;;;;;;;5004167;28;20117;-82
2020/12/14 03:46:22;;;;;;;13.38;6.88;;;;;;;;;;5036586;28;20136;-82
2020/12/14 03:48:49;;;;;;;9.75;6.82;;;;;;;;;;5023063;28;20053;-83
2020/12/14 03:51:15;;;;;;;12.82;6.93;;;;;;;;;;5003937;28;20054;-83
2020/12/14 03:53:43;;;;;;;11.43;6.72;;;;;;;;;;5004888;28;20125;-83
2020/12/14 03:56:09;;;;;;;13.02;6.72;;;;;;;;;;5004777;28;20550;-83
2020/12/14 03:58:35;;;;;;;11.90;6.85;;;;;;;;;;5004663;28;20077;-83
2020/12/14 04:01:01;;;;;;;12.07;6.88;;;;;;;;;;5022891;28;20062;-83
2020/12/14 04:03:27;;;;;;;13.15;5.90;;;;;;;;;;5005320;28;20085;-82
2020/12/14 04:05:54;;;;;;;12.32;6.03;;;;;;;;;;5006700;28;20056;-82
2020/12/14 04:08:20;;;;;;;10.65;5.63;;;;;;;;;;5023659;28;20109;-81
2020/12/14 04:10:47;;;;;;;11.82;6.22;;;;;;;;;;5023383;28;20049;-81
2020/12/14 04:13:16;;;;;;;11.18;5.30;;;;;;;;;;5030409;28;20573;-81
2020/12/14 04:15:44;;;;;;;10.63;5.43;;;;;;;;;;5041340;28;20053;-81
2020/12/14 04:18:13;;;;;;;8.68;5.70;;;;;;;;;;5005749;28;20046;-82
2020/12/14 04:20:46;;;;;;;10.43;5.13;;;;;;;;;;5007048;28;20058;-81
2020/12/14 04:23:12;;;;;;;9.32;5.25;;;;;;;;;;5022588;28;20054;-82
2020/12/14 04:25:41;;;;;;;8.85;4.75;;;;;;;;;;5014223;28;20057;-81
2020/12/14 04:28:42;;;;;;;13.23;5.07;;;;;;;;;;5039648;28;20076;-82
2020/12/14 04:31:08;;;;;;;7.90;4.88;;;;;;;;;;5016213;28;20072;-82
2020/12/14 04:33:35;;;;;;;11.27;5.50;;;;;;;;;;5013059;28;20046;-82
2020/12/14 04:36:01;;;;;;;7.72;4.05;;;;;;;;;;5008606;28;20046;-82
2020/12/14 04:38:46;;;;;;;7.90;4.75;;;;;;;;;;5051770;28;20040;-82
2020/12/14 04:41:12;;;;;;;11.65;4.45;;;;;;;;;;5041418;28;20037;-82
2020/12/14 04:43:38;;;;;;;11.95;4.53;;;;;;;;;;5042138;28;20086;-82
2020/12/14 04:46:05;;;;;;;15.05;4.72;;;;;;;;;;5026561;28;20050;-82
2020/12/14 04:48:32;;;;;;;9.20;4.38;;;;;;;;;;5027115;28;20050;-81
2020/12/14 04:50:58;;;;;;;11.98;4.30;;;;;;;;;;5035260;28;20054;-82
2020/12/14 04:53:28;;;;;;;8.98;4.78;;;;;;;;;;5030575;28;20133;-81
2020/12/14 04:55:56;;;;;;;7.93;3.95;;;;;;;;;;5022533;28;20080;-81
2020/12/14 04:58:22;;;;;;;11.63;4.07;;;;;;;;;;4988491;28;20050;-81
2020/12/14 05:00:49;;;;;;;6.13;3.70;;;;;;;;;;5003914;28;20100;-81
2020/12/14 05:03:15;;;;;;;12.13;4.40;;;;;;;;;;5020424;28;20100;-81
2020/12/14 05:05:41;;;;;;;11.23;4.30;;;;;;;;;;5020192;28;20046;-81
2020/12/14 05:08:07;;;;;;;10.30;4.20;;;;;;;;;;5021464;28;20060;-81
2020/12/14 05:10:34;;;;;;;15.18;5.25;;;;;;;;;;5025951;28;20037;-81
2020/12/14 05:13:12;;;;;;;7.82;4.13;;;;;;;;;;5039769;28;20096;-81
2020/12/14 05:15:39;;;;;;;8.68;4.55;;;;;;;;;;5021979;28;20064;-81
2020/12/14 05:18:08;;;;;;;7.75;3.75;;;;;;;;;;5039394;28;20045;-81
2020/12/14 05:20:34;;;;;;;6.85;4.03;;;;;;;;;;5038474;28;20068;-80
2020/12/14 05:23:03;;;;;;;8.20;3.92;;;;;;;;;;5038856;28;20664;-80
2020/12/14 05:25:29;;;;;;;9.10;3.88;;;;;;;;;;5038426;28;20396;-81
2020/12/14 05:28:19;;;;;;;7.53;3.90;;;;;;;;;;5021391;28;20053;-80
2020/12/14 05:30:47;;;;;;;11.30;3.75;;;;;;;;;;5037326;28;20053;-82
2020/12/14 05:33:23;;;;;;;12.73;4.20;;;;;;;;;;5038995;28;20056;-81
2020/12/14 05:35:49;;;;;;;10.40;3.67;;;;;;;;;;5039009;28;20670;-81
2020/12/14 05:38:22;;;;;;;9.48;3.80;;;;;;;;;;5040685;28;20115;-81
2020/12/14 05:40:53;;;;;;;13.90;4.15;;;;;;;;;;5046295;28;20392;-81
2020/12/14 05:43:20;;;;;;;7.55;3.65;;;;;;;;;;5040317;28;20290;-81
2020/12/14 05:45:47;;;;;;;9.95;4.03;;;;;;;;;;5040436;28;20045;-81
2020/12/14 05:48:31;;;;;;;9.50;3.90;;;;;;;;;;5039311;28;20053;-81
2020/12/14 05:50:57;;;;;;;8.35;4.70;;;;;;;;;;5039459;28;20050;-82
2020/12/14 05:53:31;;;;;;;8.75;3.70;;;;;;;;;;5037749;28;20076;-81
2020/12/14 05:55:59;;;;;;;8.93;3.90;;;;;;;;;;5038894;28;20334;-81
2020/12/14 05:58:28;;;;;;;9.50;3.72;;;;;;;;;;5038470;28;20049;-82
2020/12/14 06:00:54;;;;;;;7.20;4.30;;;;;;;;;;5021873;28;20073;-81
2020/12/14 06:03:31;;;;;;;9.93;4.35;;;;;;;;;;5052096;28;20049;-81
2020/12/14 06:06:04;;;;;;;9.05;4.18;;;;;;;;;;5032787;28;20049;-81
2020/12/14 06:08:44;;;;;;;11.65;4.85;;;;;;;;;;5035255;28;20131;-81
2020/12/14 06:11:10;;;;;;;10.20;4.15;;;;;;;;;;5023220;28;20058;-81
2020/12/14 06:13:55;;;;;;;10.02;4.45;;;;;;;;;;5030478;28;20057;-81
2020/12/14 06:16:26;;;;;;;6.13;4.05;;;;;;;;;;5040345;28;20441;-81
2020/12/14 06:18:53;;;;;;;6.63;4.40;;;;;;;;;;5036684;28;20052;-81
2020/12/14 06:21:20;;;;;;;8.15;4.15;;;;;;;;;;5023561;28;20045;-81
2020/12/14 06:23:49;;;;;;;7.57;4.53;;;;;;;;;;5023506;28;20056;-81
2020/12/14 06:26:16;;;;;;;10.77;5.20;;;;;;;;;;5039828;28;20049;-82
2020/12/14 06:28:49;;;;;;;9.73;4.72;;;;;;;;;;5021688;28;20049;-82
2020/12/14 06:31:29;;;;;;;8.40;5.15;;;;;;;;;;5019853;28;20050;-85
2020/12/14 06:33:56;;;;;;;9.15;4.80;;;;;;;;;;5034907;28;20109;-85
2020/12/14 06:36:24;;;;;;;10.88;4.80;;;;;;;;;;5034600;28;20421;-84
2020/12/14 06:38:51;;;;;;;11.95;5.15;;;;;;;;;;5021312;28;20045;-84
2020/12/14 06:41:29;;;;;;;11.18;5.00;;;;;;;;;;5038108;28;20334;-84
2020/12/14 06:44:13;;;;;;;9.75;5.25;;;;;;;;;;5021264;28;20406;-84
2020/12/14 06:46:44;;;;;;;13.20;5.80;;;;;;;;;;5019005;28;20077;-84
2020/12/14 06:49:12;;;;;;;11.90;5.05;;;;;;;;;;5019798;28;20057;-84
2020/12/14 06:51:54;;;;;;;8.73;5.13;;;;;;;;;;5037943;28;20174;-84
2020/12/14 06:54:42;;;;;;;12.65;5.47;;;;;;;;;;5036543;28;20072;-84
2020/12/14 06:57:11;;;;;;;8.50;5.13;;;;;;;;;;5026880;28;20041;-84
2020/12/14 06:59:53;;;;;;;10.40;4.47;;;;;;;;;;5036734;28;20607;-84
2020/12/14 07:02:41;;;;;;;11.65;5.10;;;;;;;;;;5027450;28;20080;-83
2020/12/14 07:05:27;;;;;;;9.43;5.03;;;;;;;;;;5017605;28;20111;-83
2020/12/14 07:07:57;;;;;;;8.38;4.72;;;;;;;;;;5018671;28;20054;-82
2020/12/14 07:10:28;;;;;;;11.05;5.20;;;;;;;;;;5033862;28;20053;-83
2020/12/14 07:12:54;;;;;;;10.20;5.72;;;;;;;;;;5038691;28;20041;-83
2020/12/14 07:15:38;;;;;;;10.95;5.07;;;;;;;;;;5021852;28;20096;-82
2020/12/14 07:18:06;;;;;;;9.73;5.28;;;;;;;;;;5039164;28;20119;-82
2020/12/14 07:20:33;;;;;;;10.27;4.72;;;;;;;;;;5021864;28;20128;-82
2020/12/14 07:23:06;;;;;;;10.02;4.80;;;;;;;;;;5023404;28;20054;-82
2020/12/14 07:25:33;;;;;;;10.30;4.82;;;;;;;;;;5018619;28;20576;-82
2020/12/14 07:28:00;;;;;;;8.07;4.90;;;;;;;;;;5025287;28;20053;-82
2020/12/14 07:30:26;;;;;;;10.23;5.40;;;;;;;;;;5020124;28;20123;-83
2020/12/14 07:32:53;;;;;;;11.98;5.10;;;;;;;;;;5023034;28;20049;-82
2020/12/14 07:35:20;;;;;;;11.55;5.13;;;;;;;;;;5040285;28;20053;-83
2020/12/14 07:37:54;;;;;;;10.55;5.18;;;;;;;;;;5023360;28;20448;-83
2020/12/14 07:40:20;;;;;;;10.77;4.63;;;;;;;;;;5020907;28;20045;-84
2020/12/14 07:42:47;;;;;;;14.18;4.70;;;;;;;;;;5036352;28;20053;-83
2020/12/14 07:45:14;;;;;;;9.13;4.60;;;;;;;;;;5036339;28;20056;-83
2020/12/14 07:47:41;;;;;;;12.57;4.70;;;;;;;;;;5036829;28;20049;-82
2020/12/14 07:50:12;;;;;;;17.95;4.95;;;;;;;;;;5026532;28;20105;-82
2020/12/14 07:52:38;;;;;;;9.70;4.15;;;;;;;;;;5025390;28;20046;-82
2020/12/14 07:55:09;;;;;;;10.80;3.92;;;;;;;;;;5031852;28;20111;-82
2020/12/14 07:57:37;;;;;;;11.95;5.13;;;;;;;;;;5037988;28;20063;-81
2020/12/14 08:00:04;;;;;;;8.02;3.83;;;;;;;;;;5042474;28;20050;-81
2020/12/14 08:02:31;;;;;;;7.88;3.72;;;;;;;;;;5054568;28;20109;-81
2020/12/14 08:05:05;;;;;;;8.70;4.25;;;;;;;;;;5036075;28;20054;-82
2020/12/14 08:07:37;;;;;;;8.30;4.43;;;;;;;;;;5025055;28;20077;-83
2020/12/14 08:10:04;;;;;;;11.73;4.18;;;;;;;;;;5021414;28;20049;-83
2020/12/14 08:15:49;;;;;;;8.63;4.28;;;;;;;;;;5036920;28;20044;-83
2020/12/14 08:18:16;;;;;;;11.95;4.80;;;;;;;;;;5039629;28;20054;-83
2020/12/14 08:20:43;;;;;;;9.85;5.20;;;;;;;;;;5012032;28;20054;-85
2020/12/14 08:23:22;;;;;;;9.80;4.57;;;;;;;;;;5021387;28;20066;-85
2020/12/14 08:25:52;;;;;;;12.85;5.38;;;;;;;;;;5015969;28;20062;-84
2020/12/14 08:28:42;;;;;;;14.38;6.00;;;;;;;;;;5007988;28;20084;-84
2020/12/14 08:31:17;;;;;;;9.15;5.18;;;;;;;;;;5011784;28;20058;-85
2020/12/14 08:33:51;;;;;;;11.18;5.30;;;;;;;;;;5006694;28;20042;-84
2020/12/14 08:36:17;;;;;;;12.07;5.60;;;;;;;;;;5015504;28;20043;-84
2020/12/14 08:38:46;;;;;;;10.93;6.55;;;;;;;;;;5025309;28;20069;-85
2020/12/14 08:41:21;;;;;;;9.73;5.47;;;;;;;;;;5032324;28;20079;-84
2020/12/14 08:43:48;;;;;;;11.50;4.97;;;;;;;;;;5000395;28;20149;-84
2020/12/14 08:46:15;;;;;;;10.82;5.65;;;;;;;;;;5006130;28;20129;-84
2020/12/14 08:48:49;;;;;;;13.52;5.80;;;;;;;;;;5024829;28;20360;-84
2020/12/14 08:51:22;;;;;;;12.88;5.95;;;;;;;;;;5009308;28;20133;-83
2020/12/14 08:53:50;;;;;;;10.90;5.85;;;;;;;;;;5016950;28;20054;-84
2020/12/14 08:56:17;;;;;;;11.40;5.70;;;;;;;;;;5015100;28;20114;-84
2020/12/14 08:58:51;;;;;;;12.05;5.72;;;;;;;;;;5035529;28;20056;-85
2020/12/14 09:01:25;;;;;;;13.75;6.03;;;;;;;;;;5024588;28;20103;-85
2020/12/14 09:03:54;;;;;;;11.13;5.43;;;;;;;;;;5023772;28;20080;-84
2020/12/14 09:06:59;;;;;;;14.35;5.93;;;;;;;;;;5007301;28;20049;-87
2020/12/14 09:10:33;;;;;;;10.95;6.60;;;;;;;;;;5010022;28;20113;-88
2020/12/14 09:13:59;;;;;;;18.88;6.65;;;;;;;;;;5021813;28;20111;-88
2020/12/14 09:17:14;;;;;;;12.32;7.00;;;;;;;;;;5024141;28;20425;-88
2020/12/14 09:20:02;;;;;;;11.32;6.18;;;;;;;;;;5014046;28;20152;-88
2020/12/14 09:22:32;;;;;;;9.68;6.40;;;;;;;;;;5041990;28;20168;-88
2020/12/14 09:25:01;;;;;;;12.90;5.55;;;;;;;;;;5039270;28;20080;-86
2020/12/14 09:27:33;;;;;;;11.20;6.57;;;;;;;;;;5039750;28;20433;-85
2020/12/14 09:30:25;;;;;;;10.45;5.78;;;;;;;;;;5021445;28;20049;-86
2020/12/14 09:36:38;;;;;;;11.60;5.97;;;;;;;;;;4964312;28;20037;-88
2020/12/14 09:39:06;;;;;;;13.77;6.57;;;;;;;;;;4985122;28;20050;-88
2020/12/14 09:41:33;;;;;;;13.07;5.95;;;;;;;;;;5005436;28;20140;-89
2020/12/14 09:43:59;;;;;;;15.63;6.80;;;;;;;;;;5038624;28;20049;-85
2020/12/14 09:46:29;;;;;;;17.45;6.50;;;;;;;;;;5020471;28;20144;-87
2020/12/14 09:48:57;;;;;;;11.90;6.22;;;;;;;;;;5029181;28;20058;-88
2020/12/14 09:51:24;;;;;;;14.98;6.85;;;;;;;;;;5017585;28;20353;-86
2020/12/14 09:53:50;;;;;;;18.95;6.97;;;;;;;;;;5017074;28;20065;-86
2020/12/14 09:56:17;;;;;;;13.60;6.72;;;;;;;;;;5020376;28;20096;-88
2020/12/14 09:58:50;;;;;;;12.40;6.88;;;;;;;;;;5021577;28;20056;-85
2020/12/14 10:01:20;;;;;;;12.00;6.72;;;;;;;;;;5025611;28;20282;-85
2020/12/14 10:03:53;;;;;;;17.65;6.97;;;;;;;;;;5063374;28;20057;-85
2020/12/14 10:10:14;;;;;;;17.95;7.55;;;;;;;;;;5042032;28;20025;-87
2020/12/14 10:12:42;;;;;;;13.85;7.05;;;;;;;;;;5030701;28;20046;-85
2020/12/14 10:15:12;;;;;;;13.50;7.80;;;;;;;;;;5045910;28;20570;-85
2020/12/14 10:17:45;;;;;;;21.20;7.05;;;;;;;;;;5047997;28;20141;-85
2020/12/14 10:20:12;;;;;;;18.67;8.02;;;;;;;;;;5045535;28;20052;-87
2020/12/14 10:22:39;;;;;;;13.43;7.05;;;;;;;;;;5047402;28;20064;-85
2020/12/14 10:25:39;;;;;;;14.30;6.90;;;;;;;;;;5047942;28;20115;-85
2020/12/14 10:28:05;;;;;;;12.68;7.28;;;;;;;;;;5050010;28;20057;-87
2020/12/14 10:30:32;;;;;;;17.35;7.75;;;;;;;;;;5047230;28;20072;-86
2020/12/14 10:33:13;;;;;;;14.25;7.20;;;;;;;;;;5046342;28;20065;-86
2020/12/14 10:35:39;;;;;;;10.93;6.78;;;;;;;;;;5046164;28;20069;-86
2020/12/14 10:38:18;;;;;;;13.27;6.30;;;;;;;;;;5048087;28;20045;-86
2020/12/14 10:40:49;;;;;;;14.18;6.22;;;;;;;;;;5047216;28;20053;-87
2020/12/14 10:43:21;;;;;;;12.20;6.03;;;;;;;;;;5046530;28;20053;-88
2020/12/14 10:45:54;;;;;;;14.60;6.72;;;;;;;;;;5046136;28;20113;-88
2020/12/14 10:48:22;;;;;;;11.07;6.22;;;;;;;;;;5039923;28;20046;-88
2020/12/14 10:50:48;;;;;;;15.43;6.55;;;;;;;;;;5047274;28;20053;-89
2020/12/14 10:53:40;;;;;;;11.15;6.30;;;;;;;;;;5051875;28;20057;-89
2020/12/14 10:56:07;;;;;;;17.05;6.53;;;;;;;;;;5037109;28;20056;-89
2020/12/14 10:58:39;;;;;;;11.73;6.50;;;;;;;;;;5052430;28;20108;-87
2020/12/14 11:12:47;;;;;;;11.73;5.15;;;;;;;;;;5046552;28;20052;-85
2020/12/14 11:15:23;;;;;;;9.30;4.95;;;;;;;;;;5028571;28;20041;-85
2020/12/14 11:17:54;;;;;;;8.32;5.03;;;;;;;;;;5029051;28;20053;-85
2020/12/14 11:20:25;;;;;;;13.73;4.97;;;;;;;;;;5032033;28;20054;-85
2020/12/14 11:23:14;;;;;;;8.63;4.65;;;;;;;;;;5032243;28;20050;-84
2020/12/14 11:25:49;;;;;;;;;;;;;;;;;;5030359;28;20057;-85
2020/12/14 11:28:27;;;;;;;7.30;4.82;;;;;;;;;;5030770;28;19921;-84
2020/12/14 11:30:54;;;;;;;12.38;5.25;;;;;;;;;;5029595;28;20050;-84
2020/12/14 11:33:25;;;;;;;7.88;4.88;;;;;;;;;;5034860;28;20052;-87
2020/12/14 11:39:25;;;;;;;11.65;4.68;;;;;;;;;;5055346;28;20040;-83
2020/12/14 11:41:51;;;;;;;5.82;4.28;;;;;;;;;;5048958;28;20519;-83
2020/12/14 11:44:18;;;;;;;11.07;4.50;;;;;;;;;;5044244;28;20075;-84
2020/12/14 11:46:48;;;;;;;9.45;4.60;;;;;;;;;;5023647;28;20053;-85
2020/12/14 11:49:16;;;;;;;7.55;5.28;;;;;;;;;;5028546;28;20241;-84
2020/12/14 11:51:42;;;;;;;11.23;4.85;;;;;;;;;;5048637;28;20085;-84
2020/12/14 11:54:11;;;;;;;10.15;4.40;;;;;;;;;;5038574;28;20076;-84
2020/12/14 11:56:38;;;;;;;9.55;4.57;;;;;;;;;;5020123;28;20053;-83
2020/12/14 11:59:06;;;;;;;8.82;4.70;;;;;;;;;;5036381;28;20084;-83
2020/12/14 12:01:32;;;;;;;19.15;5.00;;;;;;;;;;5032303;28;20053;-84
2020/12/14 12:04:08;;;;;;;9.00;4.85;;;;;;;;;;5024577;28;20049;-84
2020/12/14 12:06:35;;;;;;;8.95;4.65;;;;;;;;;;5031572;28;20113;-84
2020/12/14 12:09:02;;;;;;;9.13;4.25;;;;;;;;;;5019208;28;20057;-84
2020/12/14 12:11:31;;;;;;;11.85;4.82;;;;;;;;;;5037073;28;20046;-83
2020/12/14 12:13:58;;;;;;;8.00;5.05;;;;;;;;;;5010316;28;20306;-84
2020/12/14 12:16:24;;;;;;;11.52;4.78;;;;;;;;;;5029127;28;20049;-84
2020/12/14 12:18:50;;;;;;;10.50;4.72;;;;;;;;;;5013405;28;20159;-83
2020/12/14 12:21:17;;;;;;;7.05;4.30;;;;;;;;;;5033691;28;20049;-84
2020/12/14 12:23:43;;;;;;;5.43;4.10;;;;;;;;;;5011368;28;20044;-84
2020/12/14 12:26:10;;;;;;;9.57;4.40;;;;;;;;;;5025669;28;20045;-83
2020/12/14 12:28:37;;;;;;;8.07;4.78;;;;;;;;;;5009110;28;20053;-83
2020/12/14 12:31:04;;;;;;;10.38;4.80;;;;;;;;;;5013101;28;20091;-83
2020/12/14 12:33:30;;;;;;;11.57;4.75;;;;;;;;;;5012861;28;20063;-83
2020/12/14 12:35:57;;;;;;;11.00;4.00;;;;;;;;;;5013712;28;20057;-83
2020/12/14 12:39:01;;;;;;;7.38;4.30;;;;;;;;;;5012648;28;20275;-83
2020/12/14 12:41:54;;;;;;;9.35;4.30;;;;;;;;;;5029172;28;20363;-82
2020/12/14 12:44:21;;;;;;;10.02;4.68;;;;;;;;;;5013107;28;20105;-83
2020/12/14 12:46:50;;;;;;;9.88;4.15;;;;;;;;;;5043168;28;20037;-83
2020/12/14 12:49:17;;;;;;;12.52;4.70;;;;;;;;;;5031677;28;20056;-83
2020/12/14 12:51:44;;;;;;;7.38;4.25;;;;;;;;;;5027032;28;20568;-83
2020/12/14 12:54:11;;;;;;;10.07;4.93;;;;;;;;;;5026877;28;20046;-84
2020/12/14 12:56:37;;;;;;;7.85;4.43;;;;;;;;;;5029444;28;20041;-84
2020/12/14 12:59:04;;;;;;;7.00;4.72;;;;;;;;;;5029724;28;20049;-82
2020/12/14 13:01:33;;;;;;;8.65;4.28;;;;;;;;;;5029551;28;20057;-82
2020/12/14 13:04:00;;;;;;;8.18;4.70;;;;;;;;;;5045512;28;20111;-83
2020/12/14 13:06:30;;;;;;;7.07;4.43;;;;;;;;;;5028112;28;20045;-82
2020/12/14 13:09:04;;;;;;;9.68;4.80;;;;;;;;;;5011595;28;20308;-84
2020/12/14 13:11:33;;;;;;;10.45;5.03;;;;;;;;;;5028482;28;20099;-83
2020/12/14 13:14:00;;;;;;;10.10;4.85;;;;;;;;;;5011322;28;20524;-83
2020/12/14 13:16:27;;;;;;;7.32;3.90;;;;;;;;;;5011077;28;20056;-82
2020/12/14 13:18:53;;;;;;;8.70;4.78;;;;;;;;;;5024336;28;20265;-83
2020/12/14 13:21:26;;;;;;;9.57;4.70;;;;;;;;;;5026772;28;20057;-83
2020/12/14 13:23:53;;;;;;;11.88;4.50;;;;;;;;;;5010325;28;20045;-82
2020/12/14 13:26:20;;;;;;;7.80;4.20;;;;;;;;;;5024881;28;20053;-83
2020/12/14 13:28:46;;;;;;;7.50;4.28;;;;;;;;;;5029966;28;20072;-83
2020/12/14 13:31:17;;;;;;;8.77;4.93;;;;;;;;;;5013209;28;20076;-83
2020/12/14 13:33:44;;;;;;;11.40;4.75;;;;;;;;;;5010697;28;20052;-83
2020/12/14 13:36:11;;;;;;;7.68;4.68;;;;;;;;;;5027090;28;20103;-83
2020/12/14 13:38:40;;;;;;;6.38;4.40;;;;;;;;;;5010850;28;20119;-83
2020/12/14 13:41:08;;;;;;;9.57;4.75;;;;;;;;;;4993903;28;20148;-83
2020/12/14 13:43:34;;;;;;;5.85;3.90;;;;;;;;;;4994523;28;20303;-83
2020/12/14 13:46:09;;;;;;;7.90;3.97;;;;;;;;;;5004640;28;20117;-82
2020/12/14 13:48:36;;;;;;;5.32;4.40;;;;;;;;;;5029623;28;20057;-83
2020/12/14 13:51:04;;;;;;;6.22;4.65;;;;;;;;;;5003484;28;20115;-83
2020/12/14 13:53:30;;;;;;;7.78;4.95;;;;;;;;;;5005439;28;20166;-83
2020/12/14 13:55:59;;;;;;;8.88;4.85;;;;;;;;;;5021971;28;20046;-84
2020/12/14 13:58:26;;;;;;;5.72;4.30;;;;;;;;;;4993991;28;20112;-83
2020/12/14 14:00:53;;;;;;;8.18;5.00;;;;;;;;;;5011434;28;20075;-84
2020/12/14 14:03:23;;;;;;;9.85;4.78;;;;;;;;;;5027323;28;20148;-82
2020/12/14 14:05:49;;;;;;;8.82;4.82;;;;;;;;;;5010097;28;20316;-82
2020/12/14 14:08:16;;;;;;;6.35;4.63;;;;;;;;;;5028686;28;20120;-82
2020/12/14 14:10:47;;;;;;;7.30;5.00;;;;;;;;;;5012289;28;20231;-82
2020/12/14 14:13:14;;;;;;;5.57;4.28;;;;;;;;;;5028193;28;20085;-83
2020/12/14 14:15:40;;;;;;;8.70;6.05;;;;;;;;;;5020055;28;20406;-83
2020/12/14 14:18:07;;;;;;;8.93;4.90;;;;;;;;;;5018428;28;20073;-83
2020/12/14 14:20:35;;;;;;;7.85;4.90;;;;;;;;;;5006906;28;20163;-83
2020/12/14 14:23:01;;;;;;;8.38;4.95;;;;;;;;;;5010355;28;20085;-84
2020/12/14 14:25:28;;;;;;;7.85;4.90;;;;;;;;;;5011884;28;20057;-83
2020/12/14 14:27:54;;;;;;;9.77;5.50;;;;;;;;;;5000629;28;20054;-83
2020/12/14 14:30:21;;;;;;;6.22;4.97;;;;;;;;;;5000212;28;20053;-83
2020/12/14 14:32:47;;;;;;;9.02;6.00;;;;;;;;;;5031698;28;20257;-83
2020/12/14 14:35:14;;;;;;;7.75;6.03;;;;;;;;;;5028517;28;20041;-83
2020/12/14 14:37:43;;;;;;;7.43;6.13;;;;;;;;;;5022580;28;20226;-83
2020/12/14 14:40:13;;;;;;;6.25;5.65;;;;;;;;;;5005716;28;20187;-83
2020/12/14 14:42:40;;;;;;;11.30;6.57;;;;;;;;;;5013721;28;20317;-83
2020/12/14 14:45:08;;;;;;;99.65;41.10;;;;;;;;;;5015146;28;20046;-83
2020/12/14 14:47:35;;;;;;;57.67;25.70;;;;;;;;;;5023393;28;20041;-83
2020/12/14 14:50:02;;;;;;;10.07;7.07;;;;;;;;;;5002169;28;20472;-83
2020/12/14 14:52:32;;;;;;;9.45;7.30;;;;;;;;;;5032835;28;20068;-84
2020/12/14 14:54:58;;;;;;;8.73;6.43;;;;;;;;;;5027981;28;20049;-82
2020/12/14 14:57:24;;;;;;;9.85;7.20;;;;;;;;;;5009953;28;20141;-82
2020/12/14 14:59:50;;;;;;;9.30;7.32;;;;;;;;;;5001315;28;20284;-83
2020/12/14 15:02:20;;;;;;;9.20;7.85;;;;;;;;;;5007916;28;20054;-83
2020/12/14 15:04:46;;;;;;;9.52;6.78;;;;;;;;;;5027297;28;20072;-82
2020/12/14 15:07:12;;;;;;;14.43;8.02;;;;;;;;;;5023061;28;20050;-83
2020/12/14 15:09:40;;;;;;;11.27;8.60;;;;;;;;;;5028927;28;20066;-84
2020/12/14 15:12:07;;;;;;;11.73;8.88;;;;;;;;;;5023911;28;20057;-83
2020/12/14 15:14:33;;;;;;;16.23;11.73;;;;;;;;;;5024665;28;20097;-83